createdAt,value
2017-11-13T00:00:08.999Z,61.42
2017-11-13T00:02:34.960Z,61.88
2017-11-13T00:05:00.939Z,62.46
2017-11-13T00:07:26.947Z,62.24
2017-11-13T00:09:52.878Z,62.57
2017-11-13T00:12:18.815Z,62.38
2017-11-13T00:14:44.773Z,62.79
2017-11-13T00:17:10.722Z,63.54
2017-11-13T00:19:36.660Z,63.23
2017-11-13T00:22:02.602Z,63.80
2017-11-13T00:24:28.544Z,62.58
2017-11-13T00:26:54.532Z,63.01
2017-11-13T00:29:20.483Z,63.11
2017-11-13T00:31:46.426Z,63.26
2017-11-13T00:34:12.404Z,64.32
2017-11-13T00:36:38.329Z,64.25
2017-11-13T00:39:04.253Z,64.83
2017-11-13T00:41:30.210Z,64.37
2017-11-13T00:43:56.177Z,64.46
2017-11-13T00:46:22.108Z,64.96
2017-11-13T00:48:48.043Z,64.64
2017-11-13T00:51:14.081Z,64.43
2017-11-13T00:53:40.040Z,64.36
2017-11-13T00:56:05.985Z,63.68
2017-11-13T00:58:31.928Z,63.00
2017-11-13T01:00:57.906Z,63.83
2017-11-13T01:03:23.867Z,64.59
2017-11-13T01:05:49.826Z,63.84
2017-11-13T01:08:15.749Z,63.22
2017-11-13T01:10:41.930Z,62.45
2017-11-13T01:13:07.904Z,62.93
2017-11-13T01:15:33.824Z,63.03
2017-11-13T01:17:59.760Z,64.37
2017-11-13T01:20:25.728Z,63.49
2017-11-13T01:22:51.658Z,63.75
2017-11-13T01:25:17.602Z,63.51
2017-11-13T01:27:43.556Z,63.01
2017-11-13T01:30:09.488Z,64.15
2017-11-13T01:32:35.427Z,64.36
2017-11-13T01:35:01.374Z,64.61
2017-11-13T01:37:27.329Z,64.35
2017-11-13T01:39:53.264Z,64.87
2017-11-13T01:42:19.227Z,64.72
2017-11-13T01:44:45.154Z,64.39
2017-11-13T01:47:11.100Z,64.72
2017-11-13T01:49:37.038Z,63.61
2017-11-13T01:52:02.980Z,63.73
2017-11-13T01:54:28.907Z,64.04
2017-11-13T01:56:54.835Z,64.56
2017-11-13T01:59:20.777Z,64.77
2017-11-13T02:01:46.733Z,64.22
2017-11-13T02:04:12.682Z,63.65
2017-11-13T02:06:38.629Z,63.65
2017-11-13T02:09:04.580Z,63.76
2017-11-13T02:11:30.513Z,63.69
2017-11-13T02:13:56.450Z,64.03
2017-11-13T02:16:22.387Z,64.21
2017-11-13T02:18:48.326Z,64.66
2017-11-13T02:21:14.288Z,64.36
2017-11-13T02:23:40.334Z,64.41
2017-11-13T02:26:06.284Z,63.52
2017-11-13T02:28:32.233Z,63.43
2017-11-13T02:30:58.168Z,64.15
2017-11-13T02:33:24.097Z,63.67
2017-11-13T02:35:50.053Z,63.14
2017-11-13T02:38:16.019Z,64.57
2017-11-13T02:40:41.949Z,64.59
2017-11-13T02:43:07.876Z,64.33
2017-11-13T02:45:33.819Z,64.22
2017-11-13T02:47:59.787Z,64.55
2017-11-13T02:50:25.751Z,64.81
2017-11-13T02:52:51.716Z,63.61
2017-11-13T02:55:17.666Z,64.47
2017-11-13T02:57:43.614Z,64.46
2017-11-13T03:00:09.591Z,64.50
2017-11-13T03:02:35.535Z,64.62
2017-11-13T03:05:01.469Z,64.61
2017-11-13T03:07:27.427Z,64.39
2017-11-13T03:09:53.391Z,64.24
2017-11-13T03:12:19.327Z,64.34
2017-11-13T03:14:45.271Z,64.88
2017-11-13T03:17:11.213Z,64.65
2017-11-13T03:19:37.183Z,64.28
2017-11-13T03:22:03.126Z,63.69
2017-11-13T03:24:29.055Z,63.54
2017-11-13T03:26:55.015Z,64.28
2017-11-13T03:29:20.970Z,64.73
2017-11-13T03:31:46.908Z,64.65
2017-11-13T03:34:12.847Z,64.67
2017-11-13T03:36:38.824Z,64.92
2017-11-13T03:39:04.807Z,64.52
2017-11-13T03:41:30.753Z,64.62
2017-11-13T03:43:56.696Z,64.75
2017-11-13T03:46:22.635Z,64.81
2017-11-13T03:48:48.587Z,65.11
2017-11-13T03:51:14.523Z,65.05
2017-11-13T03:53:40.497Z,65.01
2017-11-13T03:56:06.446Z,64.78
2017-11-13T03:58:32.395Z,64.64
2017-11-13T04:00:58.351Z,64.71
2017-11-13T04:03:24.299Z,64.92
2017-11-13T04:05:50.223Z,66.35
2017-11-13T04:08:16.161Z,66.36
2017-11-13T04:10:42.107Z,66.13
2017-11-13T04:13:08.040Z,65.89
2017-11-13T04:15:34.021Z,65.53
2017-11-13T04:17:59.989Z,64.82
2017-11-13T04:20:25.921Z,65.16
2017-11-13T04:22:51.876Z,64.99
2017-11-13T04:25:17.819Z,64.42
2017-11-13T04:27:43.751Z,64.48
2017-11-13T04:30:09.699Z,65.11
2017-11-13T04:32:35.635Z,64.42
2017-11-13T04:35:01.584Z,65.60
2017-11-13T04:37:27.533Z,65.34
2017-11-13T04:39:53.510Z,65.19
2017-11-13T04:42:19.482Z,65.72
2017-11-13T04:44:45.447Z,65.43
2017-11-13T04:47:11.373Z,65.31
2017-11-13T04:49:37.300Z,65.00
2017-11-13T04:52:03.232Z,64.98
2017-11-13T04:54:29.184Z,64.80
2017-11-13T04:56:55.265Z,65.00
2017-11-13T04:59:21.195Z,65.00
2017-11-13T05:01:47.177Z,64.28
2017-11-13T05:04:13.115Z,64.80
2017-11-13T05:06:39.094Z,64.53
2017-11-13T05:09:05.066Z,64.57
2017-11-13T05:11:30.989Z,64.76
2017-11-13T05:13:56.934Z,64.79
2017-11-13T05:16:22.935Z,65.00
2017-11-13T05:18:48.885Z,64.87
2017-11-13T05:21:14.820Z,64.64
2017-11-13T05:23:40.768Z,65.17
2017-11-13T05:26:06.691Z,64.46
2017-11-13T05:28:32.666Z,64.84
2017-11-13T05:30:58.617Z,64.49
2017-11-13T05:33:24.575Z,64.83
2017-11-13T05:35:51.170Z,65.42
2017-11-13T05:38:17.136Z,65.08
2017-11-13T05:40:43.095Z,64.79
2017-11-13T05:43:09.049Z,64.88
2017-11-13T05:45:34.982Z,65.24
2017-11-13T05:48:00.913Z,65.02
2017-11-13T05:50:26.853Z,65.40
2017-11-13T05:52:52.813Z,64.88
2017-11-13T05:55:18.748Z,64.58
2017-11-13T05:57:44.695Z,65.04
2017-11-13T06:00:10.661Z,65.68
2017-11-13T06:02:36.616Z,65.44
2017-11-13T06:05:02.562Z,65.23
2017-11-13T06:07:28.516Z,64.55
2017-11-13T06:09:54.459Z,64.55
2017-11-13T06:12:20.437Z,64.28
2017-11-13T06:14:46.413Z,65.24
2017-11-13T06:17:12.364Z,64.55
2017-11-13T06:19:38.331Z,64.34
2017-11-13T06:22:04.311Z,64.72
2017-11-13T06:24:30.246Z,64.45
2017-11-13T06:26:56.213Z,64.72
2017-11-13T06:29:22.198Z,64.71
2017-11-13T06:31:48.147Z,64.20
2017-11-13T06:34:14.072Z,65.12
2017-11-13T06:36:40.026Z,65.28
2017-11-13T06:39:05.963Z,64.72
2017-11-13T06:41:31.892Z,65.28
2017-11-13T06:43:57.837Z,65.20
2017-11-13T06:46:23.795Z,65.36
2017-11-13T06:48:49.753Z,65.02
2017-11-13T06:51:15.685Z,65.46
2017-11-13T06:53:41.662Z,64.59
2017-11-13T06:56:07.638Z,63.42
2017-11-13T06:58:33.603Z,63.88
2017-11-13T07:00:59.545Z,64.78
2017-11-13T07:03:25.489Z,64.42
2017-11-13T07:05:51.459Z,64.93
2017-11-13T07:08:17.391Z,64.04
2017-11-13T07:10:43.319Z,64.28
2017-11-13T07:13:09.284Z,64.63
2017-11-13T07:15:35.279Z,65.13
2017-11-13T07:18:01.308Z,64.29
2017-11-13T07:20:27.265Z,64.67
2017-11-13T07:22:53.249Z,64.59
2017-11-13T07:25:19.200Z,64.76
2017-11-13T07:27:45.145Z,64.70
2017-11-13T07:30:11.081Z,64.80
2017-11-13T07:32:37.027Z,64.87
2017-11-13T07:35:02.999Z,64.53
2017-11-13T07:37:28.953Z,64.90
2017-11-13T07:39:54.923Z,65.20
2017-11-13T07:42:20.859Z,64.98
2017-11-13T07:44:46.819Z,64.68
2017-11-13T07:47:12.755Z,64.62
2017-11-13T07:49:38.733Z,64.82
2017-11-13T07:52:04.716Z,64.85
2017-11-13T07:54:30.643Z,64.90
2017-11-13T07:56:56.591Z,64.99
2017-11-13T07:59:22.541Z,65.73
2017-11-13T08:01:48.515Z,65.19
2017-11-13T08:04:14.535Z,65.98
2017-11-13T08:06:40.597Z,64.59
2017-11-13T08:09:06.570Z,65.21
2017-11-13T08:11:32.529Z,66.15
2017-11-13T08:13:58.483Z,65.38
2017-11-13T08:16:24.438Z,66.86
2017-11-13T08:18:50.392Z,66.41
2017-11-13T08:21:16.344Z,66.29
2017-11-13T08:23:42.283Z,67.02
2017-11-13T08:26:08.218Z,66.72
2017-11-13T08:28:34.170Z,66.13
2017-11-13T08:31:00.103Z,65.23
2017-11-13T08:33:26.057Z,65.81
2017-11-13T08:35:52.011Z,66.16
2017-11-13T08:38:17.948Z,66.42
2017-11-13T08:40:43.892Z,65.45
2017-11-13T08:43:09.875Z,66.62
2017-11-13T08:45:35.859Z,66.71
2017-11-13T08:48:01.839Z,66.73
2017-11-13T08:50:27.818Z,67.35
2017-11-13T08:52:53.765Z,66.29
2017-11-13T08:55:19.696Z,65.99
2017-11-13T08:57:45.641Z,65.94
2017-11-13T09:00:11.592Z,65.20
2017-11-13T09:02:37.543Z,65.61
2017-11-13T09:05:03.495Z,65.96
2017-11-13T09:07:29.487Z,65.40
2017-11-13T09:09:55.436Z,64.43
2017-11-13T09:12:21.379Z,64.50
2017-11-13T09:14:47.309Z,65.22
2017-11-13T09:17:13.273Z,65.40
2017-11-13T09:19:39.196Z,65.42
2017-11-13T09:22:05.166Z,65.87
2017-11-13T09:24:31.111Z,64.47
2017-11-13T09:26:57.098Z,64.32
2017-11-13T09:29:23.085Z,64.45
2017-11-13T09:31:49.006Z,64.87
2017-11-13T09:34:14.981Z,65.57
2017-11-13T09:36:40.945Z,66.35
2017-11-13T09:39:06.889Z,65.32
2017-11-13T09:41:32.871Z,64.99
2017-11-13T09:43:58.842Z,64.79
2017-11-13T09:46:24.796Z,63.77
2017-11-13T09:48:50.755Z,65.26
2017-11-13T09:51:16.735Z,65.89
2017-11-13T09:53:42.680Z,65.92
2017-11-13T09:56:08.611Z,65.61
2017-11-13T09:58:34.565Z,64.74
2017-11-13T10:01:00.497Z,63.59
2017-11-13T10:03:26.476Z,64.55
2017-11-13T10:05:52.485Z,64.46
2017-11-13T10:08:18.478Z,64.33
2017-11-13T10:10:44.436Z,64.63
2017-11-13T10:13:10.406Z,65.61
2017-11-13T10:15:36.373Z,65.11
2017-11-13T10:18:02.338Z,64.97
2017-11-13T10:20:28.338Z,64.44
2017-11-13T10:22:54.331Z,65.65
2017-11-13T10:25:20.344Z,66.22
2017-11-13T10:27:46.283Z,65.18
2017-11-13T10:30:12.387Z,65.03
2017-11-13T10:32:38.411Z,65.02
2017-11-13T10:35:04.369Z,64.98
2017-11-13T10:37:30.293Z,64.52
2017-11-13T10:39:56.243Z,64.87
2017-11-13T10:42:22.189Z,65.54
2017-11-13T10:44:48.144Z,66.17
2017-11-13T10:47:14.099Z,65.86
2017-11-13T10:49:40.041Z,65.47
2017-11-13T10:52:06.201Z,65.50
2017-11-13T10:54:32.153Z,65.79
2017-11-13T10:56:58.099Z,65.90
2017-11-13T10:59:24.049Z,66.03
2017-11-13T11:01:50.009Z,65.73
2017-11-13T11:04:15.965Z,65.97
2017-11-13T11:06:41.918Z,65.99
2017-11-13T11:09:07.931Z,66.13
2017-11-13T11:11:33.884Z,65.81
2017-11-13T11:13:59.818Z,66.11
2017-11-13T11:16:25.754Z,66.14
2017-11-13T11:18:51.737Z,66.12
2017-11-13T11:21:17.689Z,66.21
2017-11-13T11:23:43.639Z,65.66
2017-11-13T11:26:09.592Z,65.66
2017-11-13T11:28:35.532Z,65.56
2017-11-13T11:31:01.882Z,65.80
2017-11-13T11:33:27.837Z,65.64
2017-11-13T11:35:53.783Z,66.04
2017-11-13T11:38:19.715Z,65.17
2017-11-13T11:40:45.689Z,65.73
2017-11-13T11:43:11.651Z,65.48
2017-11-13T11:45:37.651Z,65.62
2017-11-13T11:48:03.656Z,65.30
2017-11-13T11:50:29.601Z,65.12
2017-11-13T11:52:55.560Z,65.41
2017-11-13T11:55:21.483Z,65.67
2017-11-13T11:57:47.435Z,65.27
2017-11-13T12:00:13.374Z,65.85
2017-11-13T12:02:39.373Z,65.98
2017-11-13T12:05:05.324Z,66.45
2017-11-13T12:07:31.325Z,66.53
2017-11-13T12:09:57.275Z,65.96
2017-11-13T12:12:23.223Z,66.24
2017-11-13T12:14:49.207Z,65.51
2017-11-13T12:17:15.160Z,66.08
2017-11-13T12:19:41.173Z,66.00
2017-11-13T12:22:07.151Z,66.49
2017-11-13T12:24:33.115Z,66.51
2017-11-13T12:26:59.090Z,66.41
2017-11-13T12:29:25.048Z,66.57
2017-11-13T12:31:51.009Z,66.51
2017-11-13T12:34:16.980Z,66.49
2017-11-13T12:36:42.946Z,66.77
2017-11-13T12:39:08.890Z,67.06
2017-11-13T12:41:34.842Z,66.68
2017-11-13T12:44:00.792Z,66.03
2017-11-13T12:46:26.742Z,65.66
2017-11-13T12:48:52.749Z,65.87
2017-11-13T12:51:18.693Z,65.91
2017-11-13T12:53:44.677Z,65.72
2017-11-13T12:56:10.656Z,65.46
2017-11-13T12:58:36.601Z,65.85
2017-11-13T13:01:02.590Z,65.89
2017-11-13T13:03:28.523Z,65.67
2017-11-13T13:05:54.496Z,65.60
2017-11-13T13:08:20.457Z,65.81
2017-11-13T13:10:46.392Z,65.03
2017-11-13T13:13:12.372Z,65.34
2017-11-13T13:15:38.359Z,65.30
2017-11-13T13:18:04.332Z,65.36
2017-11-13T13:20:30.374Z,65.22
2017-11-13T13:22:56.384Z,64.87
2017-11-13T13:25:22.362Z,64.48
2017-11-13T13:27:48.311Z,63.72
2017-11-13T13:30:14.286Z,63.90
2017-11-13T13:32:40.235Z,63.75
2017-11-13T13:35:06.170Z,63.40
2017-11-13T13:37:32.124Z,63.06
2017-11-13T13:39:58.079Z,63.16
2017-11-13T13:42:24.071Z,62.35
2017-11-13T13:44:50.000Z,62.10
2017-11-13T13:47:15.947Z,62.23
2017-11-13T13:49:41.880Z,61.94
2017-11-13T13:52:07.832Z,61.84
2017-11-13T13:54:35.728Z,61.37
2017-11-13T13:57:01.678Z,61.11
2017-11-13T13:59:27.625Z,61.47
2017-11-13T14:01:53.586Z,61.48
2017-11-13T14:04:19.532Z,61.80
2017-11-13T14:06:45.494Z,61.78
2017-11-13T14:09:11.552Z,62.03
2017-11-13T14:11:37.540Z,62.15
2017-11-13T14:14:03.526Z,62.07
2017-11-13T14:16:29.468Z,62.10
2017-11-13T14:18:55.424Z,62.03
2017-11-13T14:21:21.365Z,62.66
2017-11-13T14:23:47.332Z,63.16
2017-11-13T14:26:13.312Z,62.68
2017-11-13T14:28:39.311Z,63.10
2017-11-13T14:31:05.263Z,63.40
2017-11-13T14:33:31.196Z,63.14
2017-11-13T14:35:57.136Z,63.16
2017-11-13T14:38:23.158Z,63.25
2017-11-13T14:40:49.080Z,63.15
2017-11-13T14:43:15.009Z,63.61
2017-11-13T14:45:40.946Z,63.58
2017-11-13T14:48:06.902Z,63.57
2017-11-13T14:50:32.880Z,63.53
2017-11-13T14:52:58.861Z,63.62
2017-11-13T14:55:24.798Z,64.12
2017-11-13T14:57:50.758Z,63.79
2017-11-13T15:00:16.728Z,63.62
2017-11-13T15:02:42.702Z,64.04
2017-11-13T15:05:08.660Z,63.99
2017-11-13T15:07:34.588Z,63.59
2017-11-13T15:10:00.568Z,63.63
2017-11-13T15:12:26.553Z,63.85
2017-11-13T15:14:52.517Z,63.16
2017-11-13T15:17:18.506Z,62.93
2017-11-13T15:19:44.496Z,63.03
2017-11-13T15:22:10.434Z,63.60
2017-11-13T15:24:36.384Z,63.36
2017-11-13T15:27:02.380Z,63.32
2017-11-13T15:29:28.340Z,63.58
2017-11-13T15:31:54.328Z,63.45
2017-11-13T15:34:20.279Z,63.65
2017-11-13T15:36:46.208Z,63.40
2017-11-13T15:39:12.167Z,63.15
2017-11-13T15:41:38.125Z,63.27
2017-11-13T15:44:04.096Z,63.20
2017-11-13T15:46:30.295Z,62.93
2017-11-13T15:48:56.235Z,63.16
2017-11-13T15:51:22.193Z,63.59
2017-11-13T15:53:48.142Z,63.62
2017-11-13T15:56:14.080Z,63.99
2017-11-13T15:58:40.034Z,63.57
2017-11-13T16:01:05.985Z,63.59
2017-11-13T16:03:31.950Z,63.72
2017-11-13T16:05:57.891Z,63.48
2017-11-13T16:08:23.827Z,63.19
2017-11-13T16:10:49.817Z,63.73
2017-11-13T16:13:15.760Z,63.70
2017-11-13T16:15:41.710Z,64.16
2017-11-13T16:18:07.681Z,63.57
2017-11-13T16:20:33.638Z,64.13
2017-11-13T16:22:59.651Z,63.79
2017-11-13T16:25:25.647Z,63.29
2017-11-13T16:27:51.712Z,62.79
2017-11-13T16:30:17.673Z,63.58
2017-11-13T16:32:43.620Z,63.61
2017-11-13T16:35:09.671Z,63.51
2017-11-13T16:37:35.650Z,62.99
2017-11-13T16:40:01.716Z,62.92
2017-11-13T16:42:27.705Z,62.55
2017-11-13T16:44:53.689Z,62.91
2017-11-13T16:47:19.647Z,62.84
2017-11-13T16:49:45.826Z,63.43
2017-11-13T16:52:11.783Z,62.79
2017-11-13T16:54:37.767Z,63.47
2017-11-13T16:57:03.719Z,63.36
2017-11-13T16:59:29.663Z,63.27
2017-11-13T17:01:55.656Z,63.08
2017-11-13T17:04:21.635Z,63.13
2017-11-13T17:06:47.614Z,62.83
2017-11-13T17:09:13.613Z,62.39
2017-11-13T17:11:39.579Z,61.79
2017-11-13T17:14:05.533Z,62.31
2017-11-13T17:16:31.473Z,62.51
2017-11-13T17:18:57.416Z,62.84
2017-11-13T17:21:23.432Z,63.44
2017-11-13T17:23:49.387Z,63.27
2017-11-13T17:26:17.098Z,63.18
2017-11-13T17:28:43.066Z,63.91
2017-11-13T17:31:09.010Z,63.75
2017-11-13T17:33:34.950Z,63.51
2017-11-13T17:36:00.886Z,62.93
2017-11-13T17:38:26.852Z,63.11
2017-11-13T17:40:52.824Z,63.45
2017-11-13T17:43:18.751Z,64.02
2017-11-13T17:45:44.747Z,63.74
2017-11-13T17:48:10.683Z,63.38
2017-11-13T17:50:36.643Z,63.32
2017-11-13T17:53:02.634Z,63.29
2017-11-13T17:55:28.605Z,63.22
2017-11-13T17:57:54.577Z,63.08
2017-11-13T18:00:20.544Z,63.47
2017-11-13T18:02:46.506Z,63.80
2017-11-13T18:05:12.445Z,63.44
2017-11-13T18:07:38.387Z,64.09
2017-11-13T18:10:04.364Z,63.40
2017-11-13T18:12:30.325Z,62.98
2017-11-13T18:14:56.308Z,63.65
2017-11-13T18:17:22.280Z,64.61
2017-11-13T18:19:48.227Z,63.72
2017-11-13T18:22:14.159Z,64.01
2017-11-13T18:24:40.141Z,64.38
2017-11-13T18:27:06.087Z,64.03
2017-11-13T18:29:32.045Z,64.34
2017-11-13T18:31:58.014Z,64.05
2017-11-13T18:34:23.985Z,64.25
2017-11-13T18:36:49.938Z,64.94
2017-11-13T18:39:15.904Z,64.53
2017-11-13T18:41:41.858Z,64.03
2017-11-13T18:44:07.830Z,63.92
2017-11-13T18:46:33.776Z,63.86
2017-11-13T18:48:59.747Z,63.78
2017-11-13T18:51:25.709Z,63.87
2017-11-13T18:53:51.679Z,64.20
2017-11-13T18:56:17.633Z,63.87
2017-11-13T18:58:43.646Z,63.08
2017-11-13T19:01:09.765Z,63.43
2017-11-13T19:03:35.704Z,63.33
2017-11-13T19:06:01.666Z,63.55
2017-11-13T19:08:27.619Z,63.64
2017-11-13T19:10:53.560Z,63.65
2017-11-13T19:13:19.497Z,63.36
2017-11-13T19:15:45.441Z,63.08
2017-11-13T19:18:11.413Z,62.64
2017-11-13T19:20:37.346Z,63.42
2017-11-13T19:23:03.298Z,63.22
2017-11-13T19:25:29.236Z,63.22
2017-11-13T19:27:56.022Z,63.17
2017-11-13T19:30:21.967Z,63.09
2017-11-13T19:32:47.927Z,62.64
2017-11-13T19:35:13.902Z,62.69
2017-11-13T19:37:39.882Z,62.92
2017-11-13T19:40:06.047Z,63.32
2017-11-13T19:42:32.063Z,62.90
2017-11-13T19:44:58.039Z,62.76
2017-11-13T19:47:24.014Z,62.98
2017-11-13T19:49:49.963Z,62.32
2017-11-13T19:52:15.991Z,66.03
2017-11-13T19:54:41.982Z,66.17
2017-11-13T19:57:07.972Z,66.62
2017-11-13T19:59:33.956Z,66.29
2017-11-13T20:01:59.918Z,64.47
2017-11-13T20:04:25.862Z,64.44
2017-11-13T20:06:51.821Z,63.63
2017-11-13T20:09:17.761Z,63.45
2017-11-13T20:11:43.777Z,63.32
2017-11-13T20:14:09.760Z,62.46
2017-11-13T20:16:35.731Z,62.34
2017-11-13T20:19:01.674Z,62.00
2017-11-13T20:21:27.624Z,62.01
2017-11-13T20:23:53.605Z,61.68
2017-11-13T20:26:19.558Z,61.98
2017-11-13T20:28:45.514Z,62.47
2017-11-13T20:31:11.446Z,62.08
2017-11-13T20:33:37.398Z,61.63
2017-11-13T20:36:03.351Z,61.49
2017-11-13T20:38:29.501Z,61.71
2017-11-13T20:40:55.436Z,62.12
2017-11-13T20:43:21.380Z,62.61
2017-11-13T20:45:48.378Z,62.08
2017-11-13T20:48:14.349Z,62.63
2017-11-13T20:50:40.529Z,61.81
2017-11-13T20:53:06.569Z,61.91
2017-11-13T20:55:32.516Z,61.91
2017-11-13T20:57:58.470Z,61.76
2017-11-13T21:03:06.085Z,62.36
2017-11-13T21:05:33.045Z,61.55
2017-11-13T21:07:59.095Z,61.36
2017-11-13T21:10:25.047Z,61.77
2017-11-13T21:12:50.984Z,61.99
2017-11-13T21:15:16.930Z,62.52
2017-11-13T21:17:42.878Z,62.55
2017-11-13T21:20:08.821Z,62.43
2017-11-13T21:22:35.642Z,62.68
2017-11-13T21:25:01.581Z,62.48
2017-11-13T21:27:27.561Z,62.64
2017-11-13T21:29:53.590Z,61.50
2017-11-13T21:32:19.552Z,61.50
2017-11-13T21:34:45.731Z,61.64
2017-11-13T21:37:11.683Z,61.77
2017-11-13T21:39:37.626Z,62.88
2017-11-13T21:42:03.594Z,61.90
2017-11-13T21:44:29.547Z,62.16
2017-11-13T21:46:55.512Z,61.05
2017-11-13T21:49:21.501Z,62.31
2017-11-13T21:51:47.460Z,64.03
2017-11-13T21:54:15.429Z,62.80
2017-11-13T21:56:43.429Z,62.23
2017-11-13T21:59:09.382Z,62.67
2017-11-13T22:04:06.745Z,62.86
2017-11-13T22:09:03.951Z,62.68
2017-11-13T22:11:29.910Z,62.54
2017-11-13T22:13:55.840Z,62.47
2017-11-13T22:16:26.772Z,63.01
2017-11-13T22:18:52.721Z,63.50
2017-11-13T22:21:18.660Z,63.35
2017-11-13T22:23:46.512Z,63.08
2017-11-13T22:26:14.474Z,62.53
2017-11-13T22:28:40.463Z,62.30
2017-11-13T22:31:06.397Z,62.39
2017-11-13T22:33:32.341Z,62.32
2017-11-13T22:35:59.188Z,62.68
2017-11-13T22:38:25.134Z,62.38
2017-11-13T22:40:51.103Z,62.11
2017-11-13T22:43:17.030Z,61.69
2017-11-13T22:45:42.977Z,62.16
2017-11-13T22:48:08.928Z,62.08
2017-11-13T22:50:34.868Z,62.22
2017-11-13T22:53:00.813Z,62.40
2017-11-13T22:55:26.744Z,62.10
2017-11-13T22:57:52.691Z,61.92
2017-11-13T23:00:18.622Z,61.85
2017-11-13T23:02:44.569Z,62.48
2017-11-13T23:05:10.550Z,61.86
2017-11-13T23:07:36.488Z,62.61
2017-11-13T23:10:02.431Z,62.74
2017-11-13T23:12:28.359Z,62.10
2017-11-13T23:14:54.285Z,61.94
2017-11-13T23:17:20.225Z,61.68
2017-11-13T23:19:46.164Z,62.44
2017-11-13T23:22:12.092Z,61.51
2017-11-13T23:24:38.017Z,61.40
2017-11-13T23:27:03.960Z,62.10
2017-11-13T23:29:29.909Z,61.15
2017-11-13T23:31:55.856Z,61.77
2017-11-13T23:34:21.787Z,62.55
2017-11-13T23:36:47.720Z,62.80
2017-11-13T23:39:13.648Z,62.51
2017-11-13T23:41:39.577Z,62.04
2017-11-13T23:44:05.521Z,62.16
2017-11-13T23:46:31.444Z,62.14
2017-11-13T23:48:57.415Z,61.87
2017-11-13T23:51:23.351Z,62.07
2017-11-13T23:53:49.304Z,62.31
2017-11-13T23:56:15.256Z,62.05
2017-11-13T23:58:41.201Z,62.01
